LGA weather

La Guardia Airport
New York, New York, United States

Public forecast

Using degrees Fahrenheit for public forecast. Weather courtesy of forecast.io.

METAR (pilot weather report)

Retrieved 2018/08/16 04:51 UTC (13 minutes ago):

KLGA 160451Z 29008KT 10SM BKN250 28/21 A2997 RMK AO2 SLP149 T02830206 403280228

TAF (pilot weather forecast)

Forecast is more than 12 hours old.

Retrieved 2018/08/15 00:42 UTC (1 day ago):

TAF KLGA 152340Z 1600/1706 26009KT P6SM SCT060 FM160200 27006KT P6SM FEW060 SCT250 FM161300 30007KT P6SM FEW050 SCT250 FM161500 30008KT P6SM FEW050 SCT200 FM162000 24010KT P6SM FEW050 SCT200 FM162200 21010KT P6SM FEW050 SCT200 FM170000 22007KT P6SM FEW050 SCT200 FM170200 26006KT P6SM FEW050 SCT200